createdAt,value
2019-04-29T00:00:54.702Z,14.83
2019-04-29T00:03:25.021Z,13.83
2019-04-29T00:05:54.885Z,14.47
2019-04-29T00:08:24.710Z,13.87
2019-04-29T00:10:54.692Z,15.03
2019-04-29T00:13:24.617Z,16.57
2019-04-29T00:16:06.386Z,15.20
2019-04-29T00:18:49.388Z,14.13
2019-04-29T00:21:20.167Z,13.13
2019-04-29T00:24:02.914Z,15.20
2019-04-29T00:26:21.305Z,14.23
2019-04-29T00:28:56.025Z,14.60
2019-04-29T00:31:26.486Z,14.00
2019-04-29T00:33:56.739Z,15.57
2019-04-29T00:36:30.642Z,16.90
2019-04-29T00:39:05.160Z,18.20
2019-04-29T00:41:54.963Z,18.33
2019-04-29T00:44:25.923Z,15.60
2019-04-29T00:46:55.577Z,15.90
2019-04-29T00:49:26.059Z,14.40
2019-04-29T00:51:55.606Z,13.13
2019-04-29T00:54:42.622Z,13.00
2019-04-29T00:57:12.432Z,13.80
2019-04-29T00:59:42.550Z,15.67
2019-04-29T01:02:12.256Z,15.13
2019-04-29T01:04:41.751Z,16.70
2019-04-29T01:07:11.586Z,14.23
2019-04-29T01:09:41.723Z,15.03
2019-04-29T01:12:11.407Z,14.57
2019-04-29T01:14:41.231Z,12.60
2019-04-29T01:17:11.131Z,15.57
2019-04-29T01:19:41.317Z,16.73
2019-04-29T01:22:10.865Z,15.00
2019-04-29T01:24:40.403Z,18.47
2019-04-29T01:27:22.469Z,13.30
2019-04-29T01:29:52.340Z,15.90
2019-04-29T01:32:25.095Z,14.03
2019-04-29T01:34:55.698Z,14.87
2019-04-29T01:37:42.398Z,13.77
2019-04-29T01:40:30.385Z,15.20
2019-04-29T01:43:00.455Z,14.50
2019-04-29T01:45:31.242Z,15.43
2019-04-29T01:48:01.229Z,15.97
2019-04-29T01:50:33.148Z,15.60
2019-04-29T01:53:02.924Z,15.47
2019-04-29T01:55:32.546Z,13.93
2019-04-29T01:58:03.203Z,16.17
2019-04-29T02:00:35.423Z,13.73
2019-04-29T02:03:05.103Z,18.73
2019-04-29T02:05:34.599Z,16.07
2019-04-29T02:08:04.467Z,13.27
2019-04-29T02:10:35.000Z,14.50
2019-04-29T02:13:04.679Z,16.37
2019-04-29T02:15:34.751Z,16.23
2019-04-29T02:18:04.215Z,13.27
2019-04-29T02:20:33.924Z,16.47
2019-04-29T02:23:40.419Z,12.50
2019-04-29T02:26:09.980Z,14.73
2019-04-29T02:28:39.634Z,14.63
2019-04-29T02:31:26.565Z,13.27
2019-04-29T02:33:56.183Z,13.73
2019-04-29T02:36:29.704Z,13.03
2019-04-29T02:39:08.666Z,15.43
2019-04-29T02:41:45.546Z,12.53
2019-04-29T02:44:15.281Z,13.60
2019-04-29T02:46:44.900Z,13.23
2019-04-29T02:49:15.870Z,13.73
2019-04-29T02:51:51.971Z,12.77
2019-04-29T02:54:22.900Z,13.50
2019-04-29T02:57:00.882Z,11.90
2019-04-29T02:59:34.693Z,11.53
2019-04-29T03:02:29.565Z,13.43
2019-04-29T03:05:16.861Z,15.23
2019-04-29T03:07:46.890Z,14.63
2019-04-29T03:10:17.959Z,15.27
2019-04-29T03:12:47.571Z,16.57
2019-04-29T03:15:32.315Z,15.73
2019-04-29T03:18:02.514Z,13.83
2019-04-29T03:20:41.770Z,13.50
2019-04-29T03:23:16.678Z,13.03
2019-04-29T03:25:46.716Z,14.87
2019-04-29T03:28:17.940Z,13.83
2019-04-29T03:30:47.603Z,16.00
2019-04-29T03:33:17.430Z,13.77
2019-04-29T03:35:47.356Z,13.77
2019-04-29T03:38:16.939Z,13.63
2019-04-29T03:40:46.765Z,15.50
2019-04-29T03:43:16.612Z,14.13
2019-04-29T03:45:46.144Z,14.70
2019-04-29T03:48:15.858Z,17.97
2019-04-29T03:50:45.466Z,16.30
2019-04-29T03:53:15.307Z,14.87
2019-04-29T03:55:45.007Z,18.37
2019-04-29T03:58:17.083Z,18.53
2019-04-29T04:00:51.567Z,13.27
2019-04-29T04:03:41.429Z,14.27
2019-04-29T04:06:23.469Z,17.20
2019-04-29T04:09:06.143Z,14.63
2019-04-29T04:11:28.537Z,13.63
2019-04-29T04:13:58.235Z,16.33
2019-04-29T04:16:46.710Z,14.73
2019-04-29T04:19:16.652Z,14.07
2019-04-29T04:21:46.549Z,11.00
2019-04-29T04:24:16.049Z,13.93
2019-04-29T04:26:45.574Z,13.83
2019-04-29T04:29:15.140Z,10.07
2019-04-29T04:31:44.664Z,12.73
2019-04-29T04:34:14.786Z,12.90
2019-04-29T04:36:44.499Z,11.50
2019-04-29T04:39:16.187Z,11.87
2019-04-29T04:41:45.711Z,11.20
2019-04-29T04:44:15.444Z,11.67
2019-04-29T04:46:48.089Z,11.73
2019-04-29T04:49:19.157Z,9.47
2019-04-29T04:51:49.150Z,9.97
2019-04-29T04:54:18.996Z,11.90
2019-04-29T04:56:48.534Z,9.37
2019-04-29T04:59:18.332Z,15.57
2019-04-29T05:01:48.208Z,8.67
2019-04-29T05:04:18.121Z,8.17
2019-04-29T05:06:48.005Z,10.27
2019-04-29T05:09:17.486Z,10.23
2019-04-29T05:11:47.072Z,7.03
2019-04-29T05:14:17.118Z,8.67
2019-04-29T05:16:46.718Z,9.70
2019-04-29T05:19:16.353Z,6.83
2019-04-29T05:21:48.143Z,6.63
2019-04-29T05:24:19.566Z,8.77
2019-04-29T05:26:49.119Z,7.13
2019-04-29T05:29:19.099Z,9.27
2019-04-29T05:31:48.678Z,21.00
2019-04-29T05:34:19.455Z,8.70
2019-04-29T05:37:26.153Z,6.83
2019-04-29T05:39:57.372Z,8.80
2019-04-29T05:42:27.393Z,6.83
2019-04-29T05:45:18.836Z,7.63
2019-04-29T05:47:57.110Z,6.77
2019-04-29T05:50:47.575Z,7.20
2019-04-29T05:53:35.655Z,6.53
2019-04-29T05:56:05.375Z,7.40
2019-04-29T05:58:37.792Z,6.50
2019-04-29T06:01:12.533Z,7.00
2019-04-29T06:03:44.302Z,5.97
2019-04-29T06:06:13.212Z,5.00
2019-04-29T06:08:45.972Z,11.00
2019-04-29T06:11:15.484Z,8.77
2019-04-29T06:13:45.232Z,9.37
2019-04-29T06:16:15.951Z,5.43
2019-04-29T06:18:46.692Z,8.53
2019-04-29T06:21:16.889Z,12.70
2019-04-29T06:23:46.561Z,5.70
2019-04-29T06:26:16.082Z,3.93
2019-04-29T06:28:45.669Z,6.10
2019-04-29T06:31:16.092Z,3.60
2019-04-29T06:33:45.645Z,4.67
2019-04-29T06:36:15.874Z,4.03
2019-04-29T06:38:45.385Z,3.57
2019-04-29T06:41:15.017Z,6.47
2019-04-29T06:43:46.826Z,6.30
2019-04-29T06:46:16.360Z,5.13
2019-04-29T06:48:46.184Z,5.17
2019-04-29T06:51:15.928Z,6.40
2019-04-29T06:53:47.791Z,8.17
2019-04-29T06:56:17.189Z,4.47
2019-04-29T06:58:49.067Z,3.93
2019-04-29T07:01:18.944Z,7.90
2019-04-29T07:03:48.887Z,6.17
2019-04-29T07:06:19.046Z,5.30
2019-04-29T07:08:48.564Z,6.33
2019-04-29T07:11:19.175Z,7.87
2019-04-29T07:13:49.054Z,6.50
2019-04-29T07:16:21.903Z,4.37
2019-04-29T07:18:53.540Z,6.23
2019-04-29T07:21:23.422Z,5.30
2019-04-29T07:23:53.207Z,5.87
2019-04-29T07:26:22.703Z,4.00
2019-04-29T07:28:53.791Z,8.87
2019-04-29T07:31:23.477Z,4.93
2019-04-29T07:33:57.897Z,3.80
2019-04-29T07:36:25.855Z,4.33
2019-04-29T07:38:56.700Z,6.23
2019-04-29T07:41:26.690Z,7.67
2019-04-29T07:43:56.376Z,4.77
2019-04-29T07:46:56.102Z,3.17
2019-04-29T07:49:17.242Z,4.80
2019-04-29T07:51:48.077Z,6.17
2019-04-29T07:54:17.818Z,4.33
2019-04-29T07:56:49.586Z,8.50
2019-04-29T07:59:19.067Z,3.87
2019-04-29T08:01:50.209Z,6.97
2019-04-29T08:04:19.846Z,6.90
2019-04-29T08:06:50.247Z,6.33
2019-04-29T08:09:20.602Z,4.63
2019-04-29T08:11:54.273Z,3.43
2019-04-29T08:14:25.957Z,9.03
2019-04-29T08:16:55.780Z,5.00
2019-04-29T08:19:29.500Z,6.27
2019-04-29T08:21:59.763Z,7.67
2019-04-29T08:24:29.509Z,5.90
2019-04-29T08:26:59.680Z,8.13
2019-04-29T08:29:30.704Z,5.60
2019-04-29T08:32:03.502Z,6.63
2019-04-29T08:34:36.313Z,4.50
2019-04-29T08:37:09.257Z,7.57
2019-04-29T08:39:38.897Z,5.97
2019-04-29T08:42:11.796Z,5.30
2019-04-29T08:44:59.697Z,5.83
2019-04-29T08:47:32.189Z,8.77
2019-04-29T08:50:02.034Z,8.67
2019-04-29T08:52:33.758Z,11.27
2019-04-29T08:55:03.874Z,9.37
2019-04-29T08:57:38.468Z,16.00
2019-04-29T09:00:10.545Z,7.40
2019-04-29T09:02:41.556Z,8.30
2019-04-29T09:05:14.511Z,13.60
2019-04-29T09:07:45.592Z,12.13
2019-04-29T09:10:15.456Z,8.33
2019-04-29T09:12:49.506Z,7.83
2019-04-29T09:15:19.422Z,12.00
2019-04-29T09:17:48.842Z,10.83
2019-04-29T09:20:19.415Z,9.53
2019-04-29T09:22:54.370Z,9.20
2019-04-29T09:25:41.808Z,10.57
2019-04-29T09:28:16.239Z,10.03
2019-04-29T09:30:43.997Z,11.07
2019-04-29T09:33:14.331Z,10.67
2019-04-29T09:35:44.263Z,8.13
2019-04-29T09:38:14.268Z,10.70
2019-04-29T09:40:54.579Z,8.90
2019-04-29T09:43:32.897Z,9.53
2019-04-29T09:46:06.215Z,8.83
2019-04-29T09:48:36.233Z,6.83
2019-04-29T09:51:17.342Z,9.13
2019-04-29T09:53:39.086Z,9.90
2019-04-29T09:56:08.867Z,9.73
2019-04-29T09:58:44.292Z,8.20
2019-04-29T10:01:35.295Z,8.17
2019-04-29T10:04:27.870Z,12.47
2019-04-29T10:06:59.202Z,21.60
2019-04-29T10:09:32.462Z,9.77
2019-04-29T10:12:04.138Z,7.27
2019-04-29T10:14:39.232Z,17.10
2019-04-29T10:17:31.433Z,6.80
2019-04-29T10:20:08.178Z,7.20
2019-04-29T10:22:38.233Z,8.03
2019-04-29T10:25:08.399Z,10.90
2019-04-29T10:27:38.342Z,9.97
2019-04-29T10:30:10.249Z,7.97
2019-04-29T10:32:42.370Z,7.23
2019-04-29T10:35:13.462Z,8.03
2019-04-29T10:37:43.193Z,10.17
2019-04-29T10:40:32.314Z,8.67
2019-04-29T10:43:17.253Z,9.03
2019-04-29T10:46:05.199Z,11.63
2019-04-29T10:48:40.406Z,7.87
2019-04-29T10:51:11.767Z,8.50
2019-04-29T10:53:41.311Z,9.60
2019-04-29T10:56:11.376Z,9.37
2019-04-29T10:58:43.249Z,11.53
2019-04-29T11:02:13.642Z,8.53
2019-04-29T11:04:40.005Z,11.90
2019-04-29T11:07:43.523Z,9.90
2019-04-29T11:10:25.813Z,7.30
2019-04-29T11:12:55.718Z,12.43
2019-04-29T11:15:32.643Z,13.97
2019-04-29T11:18:03.955Z,10.27
2019-04-29T11:20:36.104Z,8.20
2019-04-29T11:23:28.393Z,10.37
2019-04-29T11:26:15.524Z,10.57
2019-04-29T11:28:51.090Z,7.43
2019-04-29T11:31:19.482Z,8.17
2019-04-29T11:34:15.996Z,13.13
2019-04-29T11:36:47.122Z,11.53
2019-04-29T11:39:24.610Z,11.87
2019-04-29T11:41:59.660Z,8.60
2019-04-29T11:44:31.761Z,8.07
2019-04-29T11:47:02.013Z,9.27
2019-04-29T11:49:40.618Z,8.83
2019-04-29T11:52:10.840Z,10.17
2019-04-29T11:54:41.013Z,10.47
2019-04-29T11:57:17.069Z,9.07
2019-04-29T12:00:10.268Z,16.00
2019-04-29T12:02:52.610Z,11.73
2019-04-29T12:05:44.771Z,11.70
2019-04-29T12:08:16.951Z,10.10
2019-04-29T12:10:48.605Z,9.00
2019-04-29T12:13:28.181Z,12.13
2019-04-29T12:16:04.464Z,10.23
2019-04-29T12:18:43.745Z,11.40
2019-04-29T12:21:33.659Z,12.30
2019-04-29T12:24:05.944Z,11.10
2019-04-29T12:26:42.871Z,10.87
2019-04-29T12:29:13.786Z,12.80
2019-04-29T12:32:04.899Z,10.30
2019-04-29T12:34:44.142Z,9.80
2019-04-29T12:37:34.211Z,12.23
2019-04-29T12:40:33.443Z,10.30
2019-04-29T12:43:20.230Z,14.77
2019-04-29T12:46:13.021Z,11.70
2019-04-29T12:48:42.642Z,11.17
2019-04-29T12:51:12.310Z,8.33
2019-04-29T12:53:44.721Z,9.37
2019-04-29T12:56:13.299Z,11.23
2019-04-29T12:58:42.894Z,10.60
2019-04-29T13:01:49.769Z,9.53
2019-04-29T13:04:05.886Z,8.83
2019-04-29T13:06:53.995Z,11.07
2019-04-29T13:09:34.914Z,10.73
2019-04-29T13:12:18.981Z,8.57
2019-04-29T13:14:39.773Z,9.83
2019-04-29T13:17:30.476Z,9.60
2019-04-29T13:20:11.811Z,11.87
2019-04-29T13:22:39.284Z,9.40
2019-04-29T13:25:09.938Z,8.43
2019-04-29T13:27:39.571Z,11.17
2019-04-29T13:30:16.118Z,11.27
2019-04-29T13:32:45.977Z,8.43
2019-04-29T13:35:16.808Z,8.60
2019-04-29T13:37:46.932Z,9.47
2019-04-29T13:40:18.667Z,9.83
2019-04-29T13:42:50.717Z,10.50
2019-04-29T13:45:26.271Z,11.50
2019-04-29T13:48:33.133Z,10.23
2019-04-29T13:51:06.489Z,9.73
2019-04-29T13:53:36.704Z,8.57
2019-04-29T13:56:11.855Z,9.50
2019-04-29T13:58:38.103Z,10.53
2019-04-29T14:01:22.600Z,10.97
2019-04-29T14:03:56.869Z,12.03
2019-04-29T14:06:30.699Z,9.10
2019-04-29T14:09:03.966Z,8.33
2019-04-29T14:11:32.855Z,11.10
2019-04-29T14:14:02.475Z,8.10
2019-04-29T14:16:32.239Z,8.53
2019-04-29T14:19:01.804Z,8.23
2019-04-29T14:21:31.907Z,11.60
2019-04-29T14:24:01.742Z,10.50
2019-04-29T14:26:31.495Z,13.13
2019-04-29T14:29:01.238Z,9.53
2019-04-29T14:31:31.675Z,9.00
2019-04-29T14:34:06.947Z,10.10
2019-04-29T14:36:36.843Z,8.90
2019-04-29T14:39:13.115Z,21.10
2019-04-29T14:41:44.092Z,9.50
2019-04-29T14:44:41.665Z,9.77
2019-04-29T14:47:33.866Z,14.70
2019-04-29T14:50:05.410Z,9.67
2019-04-29T14:52:37.855Z,12.20
2019-04-29T14:55:08.743Z,9.60
2019-04-29T14:57:41.263Z,20.77
2019-04-29T15:00:21.537Z,8.27
2019-04-29T15:02:51.270Z,7.63
2019-04-29T15:05:21.036Z,16.90
2019-04-29T15:07:50.631Z,10.07
2019-04-29T15:10:20.480Z,13.07
2019-04-29T15:13:19.665Z,10.53
2019-04-29T15:16:03.550Z,12.50
2019-04-29T15:18:48.877Z,8.87
2019-04-29T15:21:31.992Z,13.00
2019-04-29T15:23:56.230Z,10.43
2019-04-29T15:26:25.791Z,9.77
2019-04-29T15:28:55.310Z,8.40
2019-04-29T15:31:26.046Z,11.80
2019-04-29T15:33:55.517Z,12.03
2019-04-29T15:36:25.337Z,8.20
2019-04-29T15:39:08.853Z,8.43
2019-04-29T15:41:31.098Z,11.20
2019-04-29T15:44:07.181Z,11.80
2019-04-29T15:46:31.397Z,10.93
2019-04-29T15:49:00.757Z,11.13
2019-04-29T15:51:30.552Z,9.47
2019-04-29T15:54:01.096Z,9.30
2019-04-29T15:56:33.731Z,7.87
2019-04-29T15:59:07.714Z,10.57
2019-04-29T16:01:33.488Z,8.67
2019-04-29T16:04:05.862Z,11.07
2019-04-29T16:06:51.294Z,10.10
2019-04-29T16:09:51.107Z,9.73
2019-04-29T16:12:15.765Z,13.73
2019-04-29T16:14:49.049Z,10.33
2019-04-29T16:17:20.550Z,12.00
2019-04-29T16:19:48.282Z,10.50
2019-04-29T16:22:19.768Z,10.17
2019-04-29T16:24:49.338Z,8.67
2019-04-29T16:27:18.921Z,10.77
2019-04-29T16:29:51.758Z,12.93
2019-04-29T16:32:30.423Z,10.43
2019-04-29T16:34:59.954Z,11.27
2019-04-29T16:37:31.803Z,9.47
2019-04-29T16:40:02.579Z,10.47
2019-04-29T16:42:42.980Z,10.43
2019-04-29T16:45:14.371Z,13.57
2019-04-29T16:47:47.459Z,14.23
2019-04-29T16:50:17.407Z,12.33
2019-04-29T16:52:47.043Z,10.43
2019-04-29T16:55:17.914Z,10.83
2019-04-29T16:57:49.840Z,10.27
2019-04-29T17:00:25.565Z,10.53
2019-04-29T17:02:55.710Z,12.33
2019-04-29T17:05:27.113Z,22.73
2019-04-29T17:08:01.181Z,12.33
2019-04-29T17:10:56.244Z,10.90
2019-04-29T17:13:27.995Z,12.57
2019-04-29T17:15:58.387Z,11.03
2019-04-29T17:18:28.477Z,11.10
2019-04-29T17:21:04.722Z,12.43
2019-04-29T17:23:31.619Z,11.47
2019-04-29T17:26:01.302Z,12.93
2019-04-29T17:28:39.247Z,11.23
2019-04-29T17:31:31.285Z,12.13
2019-04-29T17:34:07.413Z,11.77
2019-04-29T17:36:37.952Z,9.57
2019-04-29T17:39:09.246Z,11.77
2019-04-29T17:41:41.568Z,11.10
2019-04-29T17:44:31.277Z,16.33
2019-04-29T17:47:26.022Z,10.90
2019-04-29T17:50:14.804Z,15.47
2019-04-29T17:52:46.791Z,13.47
2019-04-29T17:55:38.629Z,11.07
2019-04-29T17:58:27.654Z,12.80
2019-04-29T18:01:15.517Z,13.17
2019-04-29T18:04:02.284Z,12.97
2019-04-29T18:06:35.906Z,10.63
2019-04-29T18:09:28.831Z,16.67
2019-04-29T18:12:01.282Z,10.93
2019-04-29T18:14:37.857Z,14.10
2019-04-29T18:17:07.837Z,9.83
2019-04-29T18:19:56.302Z,11.47
2019-04-29T18:22:44.745Z,10.20
2019-04-29T18:25:30.998Z,14.83
2019-04-29T18:28:00.011Z,11.87
2019-04-29T18:30:35.856Z,10.87
2019-04-29T18:33:00.609Z,18.80
2019-04-29T18:35:30.872Z,12.60
2019-04-29T18:38:00.745Z,15.90
2019-04-29T18:40:35.482Z,12.90
2019-04-29T18:43:04.905Z,11.80
2019-04-29T18:45:36.786Z,18.37
2019-04-29T18:48:09.011Z,12.07
2019-04-29T18:50:39.679Z,12.23
2019-04-29T18:53:10.369Z,11.40
2019-04-29T18:55:40.747Z,14.07
2019-04-29T18:58:10.432Z,12.97
2019-04-29T19:00:41.084Z,13.60
2019-04-29T19:03:14.883Z,11.53
2019-04-29T19:05:55.148Z,14.37
2019-04-29T19:08:26.680Z,11.60
2019-04-29T19:11:05.095Z,15.57
2019-04-29T19:13:38.126Z,10.87
2019-04-29T19:16:13.076Z,11.80
2019-04-29T19:18:47.440Z,12.77
2019-04-29T19:21:17.415Z,12.07
2019-04-29T19:23:52.575Z,12.87
2019-04-29T19:26:22.335Z,11.80
2019-04-29T19:28:53.555Z,14.67
2019-04-29T19:31:27.159Z,14.37
2019-04-29T19:33:57.691Z,16.43
2019-04-29T19:36:30.803Z,13.97
2019-04-29T19:39:01.228Z,15.33
2019-04-29T19:41:31.662Z,20.50
2019-04-29T19:44:01.588Z,14.03
2019-04-29T19:46:38.486Z,13.17
2019-04-29T19:49:10.035Z,10.17
2019-04-29T19:51:43.686Z,12.47
2019-04-29T19:54:23.787Z,11.67
2019-04-29T19:56:55.623Z,13.23
2019-04-29T19:59:22.876Z,12.40
2019-04-29T20:02:02.134Z,11.70
2019-04-29T20:04:43.577Z,14.17
2019-04-29T20:07:16.906Z,11.90
2019-04-29T20:09:48.294Z,13.97
2019-04-29T20:12:17.948Z,13.47
2019-04-29T20:14:48.132Z,14.47
2019-04-29T20:17:37.226Z,13.73
2019-04-29T20:20:46.298Z,12.27
2019-04-29T20:23:24.877Z,15.83
2019-04-29T20:25:49.632Z,14.27
2019-04-29T20:28:21.303Z,14.50
2019-04-29T20:30:56.990Z,13.00
2019-04-29T20:33:23.091Z,12.97
2019-04-29T20:36:01.998Z,14.37
2019-04-29T20:38:29.956Z,12.67
2019-04-29T20:41:00.710Z,14.93
2019-04-29T20:43:32.382Z,13.83
2019-04-29T20:46:04.549Z,12.83
2019-04-29T20:48:37.132Z,15.37
2019-04-29T20:51:13.563Z,16.63
2019-04-29T20:53:47.996Z,13.70
2019-04-29T20:56:27.532Z,17.10
2019-04-29T20:58:49.488Z,12.70
2019-04-29T21:01:26.419Z,16.10
2019-04-29T21:03:58.057Z,13.93
2019-04-29T21:06:32.700Z,13.60
2019-04-29T21:09:00.685Z,13.13
2019-04-29T21:11:42.724Z,13.63
2019-04-29T21:14:21.071Z,13.83
2019-04-29T21:16:51.853Z,13.10
2019-04-29T21:19:22.200Z,13.00
2019-04-29T21:21:52.016Z,13.33
2019-04-29T21:24:22.141Z,14.60
2019-04-29T21:26:55.050Z,15.33
2019-04-29T21:29:25.601Z,15.93
2019-04-29T21:31:59.800Z,18.50
2019-04-29T21:34:34.558Z,13.23
2019-04-29T21:37:10.805Z,17.10
2019-04-29T21:39:52.334Z,18.97
2019-04-29T21:42:35.402Z,15.90
2019-04-29T21:45:03.532Z,15.60
2019-04-29T21:47:42.693Z,13.77
2019-04-29T21:50:06.681Z,12.70
2019-04-29T21:52:36.250Z,14.70
2019-04-29T21:55:06.586Z,17.90
2019-04-29T21:57:38.441Z,15.43
2019-04-29T22:00:10.320Z,14.00
2019-04-29T22:02:41.501Z,16.07
2019-04-29T22:05:14.903Z,16.70
2019-04-29T22:07:47.489Z,15.43
2019-04-29T22:10:20.002Z,14.60
2019-04-29T22:12:50.951Z,14.50
2019-04-29T22:15:30.612Z,14.47
2019-04-29T22:17:56.398Z,13.50
2019-04-29T22:20:25.738Z,17.93
2019-04-29T22:22:55.861Z,15.80
2019-04-29T22:25:27.988Z,17.80
2019-04-29T22:27:57.748Z,20.13
2019-04-29T22:30:27.528Z,17.87
2019-04-29T22:32:58.704Z,19.50
2019-04-29T22:35:32.808Z,17.17
2019-04-29T22:37:59.648Z,16.40
2019-04-29T22:40:34.119Z,14.77
2019-04-29T22:43:15.003Z,14.10
2019-04-29T22:45:46.067Z,14.27
2019-04-29T22:48:19.607Z,14.50
2019-04-29T22:50:47.490Z,15.20
2019-04-29T22:53:16.971Z,16.10
2019-04-29T22:55:47.171Z,13.67
2019-04-29T22:58:18.937Z,16.67
2019-04-29T23:00:48.529Z,14.70
2019-04-29T23:03:20.315Z,14.73
2019-04-29T23:05:49.846Z,17.60
2019-04-29T23:08:19.666Z,24.90
2019-04-29T23:10:49.511Z,23.27
2019-04-29T23:13:19.591Z,18.17
2019-04-29T23:15:49.231Z,17.70
2019-04-29T23:18:26.680Z,15.20
2019-04-29T23:21:16.275Z,13.70
2019-04-29T23:23:48.849Z,14.63
2019-04-29T23:26:18.124Z,15.33
2019-04-29T23:28:47.641Z,16.30
2019-04-29T23:31:17.292Z,14.53
2019-04-29T23:33:47.133Z,15.13
2019-04-29T23:36:16.632Z,15.97
2019-04-29T23:38:46.400Z,13.63
2019-04-29T23:41:16.468Z,18.87
2019-04-29T23:43:47.707Z,17.33
2019-04-29T23:46:17.512Z,16.73
2019-04-29T23:48:49.845Z,13.93
2019-04-29T23:51:27.433Z,14.80
2019-04-29T23:54:03.000Z,16.73
2019-04-29T23:56:30.015Z,16.87
2019-04-29T23:59:09.921Z,14.97
